Time;durP1;ratioP1;P1;durP2;ratioP2;P2;SDS_P1;SDS_P2;PMS_P1;PMS_P2;Temp;Humidity;BMP_temperature;BMP_pressure;BME280_temperature;BME280_humidity;BME280_pressure;Samples;Min_cycle;Max_cycle;Signal;HPM_P1;HPM_P2
2022/06/29 00:01:52;;;;;;;;;;;;;;;22.92;64.35;100890.84;7407724;19;1856;-55
2022/06/29 00:04:20;;;;;;;;;;;;;;;22.96;64.23;100911.97;7409640;19;1416;-61
2022/06/29 00:06:49;;;;;;;;;;;;;;;22.90;64.60;100909.03;7411415;19;1298;-56
2022/06/29 00:09:17;;;;;;;;;;;;;;;22.88;64.43;100903.81;7410257;19;1373;-60
2022/06/29 00:11:45;;;;;;;;;;;;;;;22.92;64.25;100909.72;7409912;19;1380;-55
2022/06/29 00:14:17;;;;;;;;;;;;;;;22.93;64.17;100914.97;7408866;19;1471;-61
2022/06/29 00:16:45;;;;;;;;;;;;;;;22.90;64.28;100920.69;7409989;19;1322;-56
2022/06/29 00:19:17;;;;;;;;;;;;;;;22.91;64.22;100902.66;7409919;19;1398;-55
2022/06/29 00:21:45;;;;;;;;;;;;;;;22.90;64.62;100904.50;7410095;19;1863;-60
2022/06/29 00:24:17;;;;;;;;;;;;;;;22.89;64.55;100907.38;7411502;19;1381;-55
2022/06/29 00:26:46;;;;;;;;;;;;;;;22.92;64.13;100909.72;7410817;19;1301;-55
2022/06/29 00:29:20;;;;;;;;;;;;;;;22.93;64.27;100911.44;7408690;19;1542;-56
2022/06/29 00:31:48;;;;;;;;;;;;;;;22.92;64.30;100916.00;7409385;19;1355;-56
2022/06/29 00:34:16;;;;;;;;;;;;;;;22.92;64.10;100907.91;7409222;19;1390;-55
2022/06/29 00:36:46;;;;;;;;;;;;;;;22.92;64.35;100910.59;7410092;19;1360;-55
2022/06/29 00:39:17;;;;;;;;;;;;;;;22.88;64.17;100893.03;7408558;19;1479;-61
2022/06/29 00:41:46;;;;;;;;;;;;;;;22.87;64.54;100896.72;7407796;19;1871;-61
2022/06/29 00:44:15;;;;;;;;;;;;;;;22.89;64.27;100893.88;7407976;19;1476;-55
2022/06/29 00:46:49;;;;;;;;;;;;;;;22.90;64.35;100906.34;7409381;19;1364;-56
2022/06/29 00:49:17;;;;;;;;;;;;;;;22.85;64.58;100893.34;7407867;19;1896;-55
2022/06/29 00:51:47;;;;;;;;;;;;;;;22.87;64.40;100885.94;7410546;19;1348;-55
2022/06/29 00:54:17;;;;;;;;;;;;;;;22.85;64.48;100890.66;7408619;19;1851;-60
2022/06/29 00:56:46;;;;;;;;;;;;;;;22.87;64.61;100896.72;7409382;19;1689;-61
2022/06/29 00:59:20;;;;;;;;;;;;;;;22.88;64.58;100892.16;7408006;19;1467;-55
2022/06/29 01:01:51;;;;;;;;;;;;;;;22.82;64.70;100883.72;7407516;19;1872;-59
2022/06/29 01:04:20;;;;;;;;;;;;;;;22.86;64.25;100889.66;7405999;19;1361;-61
2022/06/29 01:06:48;;;;;;;;;;;;;;;22.85;64.60;100887.94;7409730;19;1254;-55
2022/06/29 01:09:17;;;;;;;;;;;;;;;22.86;64.45;100881.56;7406981;19;1459;-60
2022/06/29 01:11:45;;;;;;;;;;;;;;;22.86;64.56;100873.47;7408190;19;1428;-60
2022/06/29 01:14:16;;;;;;;;;;;;;;;22.83;64.34;100877.31;7408203;19;1366;-60
2022/06/29 01:16:44;;;;;;;;;;;;;;;22.82;64.65;100867.56;7409201;19;1333;-60
2022/06/29 01:19:15;;;;;;;;;;;;;;;22.84;64.55;100886.28;7407269;19;1569;-56
2022/06/29 01:21:44;;;;;;;;;;;;;;;22.83;64.36;100868.38;7408862;19;1865;-56
2022/06/29 01:24:15;;;;;;;;;;;;;;;22.81;64.77;100875.78;7409649;19;1626;-55
2022/06/29 01:26:44;;;;;;;;;;;;;;;22.81;64.63;100882.03;7409813;19;1625;-60
2022/06/29 01:29:12;;;;;;;;;;;;;;;22.79;64.72;100856.22;7411428;19;1555;-55
2022/06/29 01:31:41;;;;;;;;;;;;;;;22.82;64.60;100867.56;7410121;19;1621;-60
2022/06/29 01:34:09;;;;;;;;;;;;;;;22.81;64.54;100884.72;7409783;19;1370;-55
2022/06/29 01:36:40;;;;;;;;;;;;;;;22.80;64.66;100877.66;7409804;19;1708;-55
2022/06/29 01:39:08;;;;;;;;;;;;;;;22.81;64.78;100854.22;7407465;19;1885;-59
2022/06/29 01:41:39;;;;;;;;;;;;;;;22.86;64.53;100884.25;7407428;19;1865;-55
2022/06/29 01:44:08;;;;;;;;;;;;;;;22.80;64.44;100868.69;7409743;19;1329;-55
2022/06/29 01:46:36;;;;;;;;;;;;;;;22.81;64.51;100886.56;7409798;19;1614;-56
2022/06/29 01:49:05;;;;;;;;;;;;;;;22.79;64.63;100880.50;7409783;19;1282;-60
2022/06/29 01:51:34;;;;;;;;;;;;;;;22.81;64.47;100883.88;7409466;19;1013;-60
2022/06/29 01:54:03;;;;;;;;;;;;;;;22.81;64.47;100881.19;7408938;19;1405;-56
2022/06/29 01:56:31;;;;;;;;;;;;;;;22.79;64.46;100873.25;7407427;19;1375;-55
2022/06/29 01:59:02;;;;;;;;;;;;;;;22.80;64.73;100876.78;7409112;19;1472;-55
2022/06/29 02:01:30;;;;;;;;;;;;;;;22.80;64.43;100880.34;7397157;19;1850;-60
2022/06/29 02:03:59;;;;;;;;;;;;;;;22.77;64.27;100880.66;7402879;19;1535;-56
2022/06/29 02:06:27;;;;;;;;;;;;;;;22.77;64.23;100883.34;7406429;19;1564;-61
2022/06/29 02:08:56;;;;;;;;;;;;;;;22.78;64.20;100893.13;7406602;19;1332;-61
2022/06/29 02:11:24;;;;;;;;;;;;;;;22.75;64.38;100887.22;7407307;19;1543;-55
2022/06/29 02:13:53;;;;;;;;;;;;;;;22.77;64.36;100874.41;7406199;19;1578;-60
2022/06/29 02:16:24;;;;;;;;;;;;;;;22.78;64.13;100898.53;7405518;19;1339;-55
2022/06/29 02:18:52;;;;;;;;;;;;;;;22.76;63.82;100900.53;7405831;19;1613;-56
2022/06/29 02:21:21;;;;;;;;;;;;;;;22.73;63.84;100894.59;7406193;19;1851;-56
2022/06/29 02:23:49;;;;;;;;;;;;;;;22.69;63.99;100885.16;7405751;19;1677;-56
2022/06/29 02:26:17;;;;;;;;;;;;;;;22.71;63.84;100892.06;7405657;19;1623;-56
2022/06/29 02:28:46;;;;;;;;;;;;;;;22.72;63.89;100899.16;7406632;19;984;-56
2022/06/29 02:36:38;;;;;;;;;;;;;;;22.68;63.69;100883.44;7405326;19;1725;-55
2022/06/29 02:39:06;;;;;;;;;;;;;;;22.69;63.66;100894.06;7405601;19;1429;-61
2022/06/29 02:41:35;;;;;;;;;;;;;;;22.61;64.15;100908.31;7405121;19;1853;-62
2022/06/29 02:44:03;;;;;;;;;;;;;;;22.54;64.13;100899.19;7404436;19;1460;-62
2022/06/29 02:46:31;;;;;;;;;;;;;;;22.54;64.08;100899.19;7404641;19;1426;-56
2022/06/29 02:49:02;;;;;;;;;;;;;;;22.39;64.42;100909.66;7405223;19;1449;-61
2022/06/29 02:51:31;;;;;;;;;;;;;;;22.43;64.54;100894.03;7405956;19;1317;-55
2022/06/29 02:53:59;;;;;;;;;;;;;;;22.46;65.32;100901.78;7403602;19;1749;-59
2022/06/29 02:56:27;;;;;;;;;;;;;;;22.50;64.50;100903.19;7404771;19;1447;-55
2022/06/29 02:58:56;;;;;;;;;;;;;;;22.42;64.66;100928.22;7405093;19;1619;-60
2022/06/29 03:01:24;;;;;;;;;;;;;;;22.43;64.33;100899.41;7402865;19;1859;-57
2022/06/29 03:03:52;;;;;;;;;;;;;;;22.40;64.26;100908.66;7400816;19;1243;-55
2022/06/29 03:06:23;;;;;;;;;;;;;;;22.40;64.28;100919.44;7405239;19;1540;-61
2022/06/29 03:08:52;;;;;;;;;;;;;;;22.38;64.34;100904.41;7401031;19;1370;-61
2022/06/29 03:11:20;;;;;;;;;;;;;;;22.39;64.44;100919.59;7402324;19;1634;-61
2022/06/29 03:13:48;;;;;;;;;;;;;;;22.37;64.05;100913.50;7401197;19;1528;-56
2022/06/29 03:16:17;;;;;;;;;;;;;;;22.34;64.15;100916.50;7405529;19;1630;-60
2022/06/29 03:18:45;;;;;;;;;;;;;;;22.35;64.17;100912.81;7402720;19;1707;-61
2022/06/29 03:21:13;;;;;;;;;;;;;;;22.28;63.79;100917.97;7405351;19;1647;-56
2022/06/29 03:23:44;;;;;;;;;;;;;;;22.23;63.96;100910.31;7401152;19;1838;-61
2022/06/29 03:26:13;;;;;;;;;;;;;;;22.27;63.94;100910.06;7402337;19;1535;-56
2022/06/29 03:28:41;;;;;;;;;;;;;;;22.26;64.07;100919.13;7404459;19;986;-61
2022/06/29 03:31:09;;;;;;;;;;;;;;;22.20;63.93;100918.72;7403544;19;1797;-61
2022/06/29 03:33:38;;;;;;;;;;;;;;;22.20;64.06;100909.75;7403614;19;1737;-56
2022/06/29 03:36:06;;;;;;;;;;;;;;;22.26;64.16;100919.13;7403877;19;1800;-60
2022/06/29 03:38:34;;;;;;;;;;;;;;;22.22;64.20;100914.03;7403801;19;1638;-61
2022/06/29 03:41:05;;;;;;;;;;;;;;;22.24;64.22;100917.44;7404418;19;1629;-56
2022/06/29 03:43:34;;;;;;;;;;;;;;;22.24;64.05;100906.66;7401692;19;1859;-56
2022/06/29 03:46:02;;;;;;;;;;;;;;;22.28;64.03;100919.81;7405124;19;1083;-56
2022/06/29 03:48:30;;;;;;;;;;;;;;;22.41;63.71;100921.13;7404437;19;1587;-55
2022/06/29 03:50:58;;;;;;;;;;;;;;;22.35;63.58;100910.13;7403441;19;1681;-61
2022/06/29 03:53:27;;;;;;;;;;;;;;;22.27;63.81;100910.88;7403213;19;1567;-56
2022/06/29 03:55:56;;;;;;;;;;;;;;;22.28;63.61;100919.81;7403940;19;1634;-56
2022/06/29 03:58:27;;;;;;;;;;;;;;;22.33;63.83;100912.13;7404165;19;1630;-61
2022/06/29 04:00:55;;;;;;;;;;;;;;;;;;7404207;19;1457;-56
2022/06/29 04:03:23;;;;;;;;;;;;;;;22.27;63.96;100912.75;7401121;19;1855;-61
2022/06/29 04:05:51;;;;;;;;;;;;;;;22.27;63.97;100920.81;7402800;19;1637;-61
2022/06/29 04:08:19;;;;;;;;;;;;;;;22.31;64.05;100903.34;7403048;19;1342;-56
2022/06/29 04:10:48;;;;;;;;;;;;;;;22.46;64.32;100903.63;7403262;19;1556;-61
2022/06/29 04:13:16;;;;;;;;;;;;;;;22.51;64.00;100902.19;7404272;19;1658;-56
2022/06/29 04:15:47;;;;;;;;;;;;;;;22.52;63.80;100908.41;7403966;19;1441;-61
2022/06/29 04:18:15;;;;;;;;;;;;;;;22.47;64.21;100908.88;7402586;19;1580;-56
2022/06/29 04:23:24;;;;;;;;;;;;;;;22.51;63.87;100912.13;7402691;19;1857;-60
2022/06/29 04:25:52;;;;;;;;;;;;;;;22.57;63.92;100917.72;7402866;19;1634;-56
2022/06/29 04:28:21;;;;;;;;;;;;;;;22.66;63.88;100917.78;7403900;19;1645;-62
2022/06/29 04:30:51;;;;;;;;;;;;;;;22.76;63.73;100916.72;7402435;19;1547;-62
2022/06/29 04:33:20;;;;;;;;;;;;;;;22.82;63.23;100909.84;7402885;19;1559;-62
2022/06/29 04:35:48;;;;;;;;;;;;;;;22.86;63.60;100904.97;7402187;19;1563;-56
2022/06/29 04:38:17;;;;;;;;;;;;;;;22.95;63.71;100917.50;7402937;19;1530;-62
2022/06/29 04:40:45;;;;;;;;;;;;;;;22.92;63.75;100918.69;7410790;19;1558;-62
2022/06/29 04:43:13;;;;;;;;;;;;;;;22.96;63.90;100903.00;7408516;19;1864;-55
2022/06/29 04:48:25;;;;;;;;;;;;;;;22.89;64.93;100918.16;7409396;19;1654;-62
2022/06/29 04:50:53;;;;;;;;;;;;;;;22.70;66.04;100894.91;7408832;19;1466;-56
2022/06/29 04:53:22;;;;;;;;;;;;;;;23.01;64.98;100919.56;7407839;19;1325;-59
2022/06/29 04:55:50;;;;;;;;;;;;;;;23.06;64.85;100911.03;7409705;19;1614;-59
2022/06/29 04:58:18;;;;;;;;;;;;;;;22.97;65.42;100923.59;7409659;19;1299;-57
2022/06/29 05:00:46;;;;;;;;;;;;;;;22.95;65.69;100921.03;7408980;19;1546;-55
2022/06/29 05:03:15;;;;;;;;;;;;;;;23.03;65.20;100928.38;7407692;19;1849;-56
2022/06/29 05:05:47;;;;;;;;;;;;;;;23.02;65.51;100938.34;7408871;19;1550;-59
2022/06/29 05:08:16;;;;;;;;;;;;;;;23.08;65.44;100939.56;7409696;19;1614;-58
2022/06/29 05:10:44;;;;;;;;;;;;;;;23.16;66.00;100946.88;7409416;19;1368;-56
2022/06/29 05:13:13;;;;;;;;;;;;;;;23.24;65.68;100957.72;7407551;19;1393;-55
2022/06/29 05:15:41;;;;;;;;;;;;;;;23.19;65.96;100916.84;7407231;19;1613;-65
2022/06/29 05:18:10;;;;;;;;;;;;;;;23.06;65.29;100927.22;7408096;19;1745;-64
2022/06/29 05:20:38;;;;;;;;;;;;;;;22.89;65.98;100937.88;7408479;19;1373;-60
2022/06/29 05:23:09;;;;;;;;;;;;;;;22.74;66.72;100923.25;7406865;19;1862;-56
2022/06/29 05:25:37;;;;;;;;;;;;;;;22.71;66.86;100921.72;7406888;19;1576;-55
2022/06/29 05:28:06;;;;;;;;;;;;;;;22.81;66.45;100922.47;7407712;19;1768;-64
2022/06/29 05:30:34;;;;;;;;;;;;;;;23.03;65.73;100917.59;7408083;19;1679;-54
2022/06/29 05:33:03;;;;;;;;;;;;;;;23.24;65.48;100928.03;7408291;19;1362;-56
2022/06/29 05:35:33;;;;;;;;;;;;;;;23.31;65.54;100915.56;7407387;19;1397;-63
2022/06/29 05:38:01;;;;;;;;;;;;;;;23.22;65.81;100911.16;7408005;19;1382;-57
2022/06/29 05:40:33;;;;;;;;;;;;;;;23.00;66.37;100915.19;7409756;19;1634;-58
2022/06/29 05:43:01;;;;;;;;;;;;;;;23.12;65.89;100927.44;7405948;19;1869;-58
2022/06/29 05:45:30;;;;;;;;;;;;;;;23.21;65.92;100914.84;7405624;19;1551;-63
2022/06/29 05:47:59;;;;;;;;;;;;;;;23.18;65.93;100923.28;7405306;19;1497;-55
2022/06/29 05:50:28;;;;;;;;;;;;;;;23.17;66.48;100918.88;7401908;19;1295;-57
2022/06/29 05:52:56;;;;;;;;;;;;;;;23.21;65.86;100915.69;7408534;19;1432;-67
2022/06/29 05:55:24;;;;;;;;;;;;;;;23.27;65.77;100929.56;7406202;19;1683;-59
2022/06/29 05:57:55;;;;;;;;;;;;;;;23.38;65.68;100931.97;7406376;19;1538;-61
2022/06/29 06:00:25;;;;;;;;;;;;;;;23.25;66.25;100927.00;7406421;19;1488;-65
2022/06/29 06:02:53;;;;;;;;;;;;;;;23.20;66.60;100935.59;7403993;19;1857;-66
2022/06/29 06:05:22;;;;;;;;;;;;;;;23.14;66.38;100917.34;7405501;19;1475;-67
2022/06/29 06:07:51;;;;;;;;;;;;;;;23.22;67.10;100921.94;7406860;19;1400;-63
2022/06/29 06:10:19;;;;;;;;;;;;;;;23.27;66.38;100913.38;7404140;19;1547;-53
2022/06/29 06:12:47;;;;;;;;;;;;;;;23.17;66.12;100902.69;7405549;19;1477;-52
2022/06/29 06:15:18;;;;;;;;;;;;;;;23.10;66.25;100907.88;7406341;19;1308;-50
2022/06/29 06:17:47;;;;;;;;;;;;;;;23.22;66.46;100911.16;7405625;19;1475;-66
2022/06/29 06:20:15;;;;;;;;;;;;;;;23.37;65.57;100922.19;7405111;19;1461;-66
2022/06/29 06:22:43;;;;;;;;;;;;;;;23.45;65.37;100913.28;7404863;19;1862;-52
2022/06/29 06:25:11;;;;;;;;;;;;;;;23.48;65.72;100918.38;7404673;19;1508;-51
2022/06/29 06:27:40;;;;;;;;;;;;;;;23.55;65.32;100932.91;7406362;19;1526;-66
2022/06/29 06:30:09;;;;;;;;;;;;;;;23.60;65.64;100915.22;7402995;19;1306;-61
2022/06/29 06:32:40;;;;;;;;;;;;;;;23.68;65.27;100922.50;7403608;19;1475;-50
2022/06/29 06:35:09;;;;;;;;;;;;;;;23.79;65.29;100924.91;7402843;19;1587;-56
2022/06/29 06:37:37;;;;;;;;;;;;;;;23.76;65.35;100930.63;7406271;19;1188;-63
2022/06/29 06:42:47;;;;;;;;;;;;;;;23.75;65.91;100907.31;7405544;19;1842;-61
2022/06/29 06:45:15;;;;;;;;;;;;;;;23.66;67.60;100913.72;7406449;19;1614;-56
2022/06/29 06:47:46;;;;;;;;;;;;;;;23.71;67.19;100913.22;7405298;19;1363;-55
2022/06/29 06:50:14;;;;;;;;;;;;;;;23.76;67.68;100911.72;7403156;19;1287;-63
2022/06/29 06:52:43;;;;;;;;;;;;;;;23.90;67.68;100912.16;7405032;19;1774;-55
2022/06/29 06:55:13;;;;;;;;;;;;;;;23.87;68.57;100909.75;7405120;19;1736;-55
2022/06/29 06:57:41;;;;;;;;;;;;;;;23.84;68.49;100893.91;7407453;19;1625;-56
2022/06/29 07:00:11;;;;;;;;;;;;;;;23.85;69.68;100893.72;7404448;19;1462;-65
2022/06/29 07:02:40;;;;;;;;;;;;;;;23.90;68.90;100904.03;7400332;19;1849;-53
2022/06/29 07:05:11;;;;;;;;;;;;;;;23.85;68.19;100912.63;7402998;19;1528;-64
2022/06/29 07:07:39;;;;;;;;;;;;;;;23.96;68.04;100908.78;7404484;19;1284;-66
2022/06/29 07:10:08;;;;;;;;;;;;;;;23.94;67.96;100900.84;7402557;19;1642;-62
2022/06/29 07:12:37;;;;;;;;;;;;;;;23.99;67.31;100908.44;7403857;19;1312;-61
2022/06/29 07:15:05;;;;;;;;;;;;;;;24.05;67.96;100896.13;7403471;19;1352;-56
2022/06/29 07:17:34;;;;;;;;;;;;;;;23.93;67.45;100903.69;7403553;19;1392;-62
2022/06/29 07:20:02;;;;;;;;;;;;;;;23.94;67.25;100894.59;7404468;19;1463;-56
2022/06/29 07:22:33;;;;;;;;;;;;;;;23.95;67.37;100905.22;7404362;19;1576;-63
2022/06/29 07:25:01;;;;;;;;;;;;;;;24.06;67.06;100903.25;7402825;19;1890;-60
2022/06/29 07:27:30;;;;;;;;;;;;;;;24.07;67.11;100907.63;7405327;19;1523;-56
2022/06/29 07:29:58;;;;;;;;;;;;;;;23.99;67.03;100906.59;7403279;19;1661;-62
2022/06/29 07:32:26;;;;;;;;;;;;;;;23.87;67.56;100898.97;7403204;19;1444;-61
2022/06/29 07:34:54;;;;;;;;;;;;;;;23.88;67.40;100901.50;7403826;19;1547;-63
2022/06/29 07:37:23;;;;;;;;;;;;;;;23.87;67.28;100909.75;7405314;19;1055;-60
2022/06/29 07:39:54;;;;;;;;;;;;;;;23.91;67.65;100916.53;7401993;19;1375;-61
2022/06/29 07:42:22;;;;;;;;;;;;;;;23.91;67.31;100911.13;7402779;19;1437;-56
2022/06/29 07:44:50;;;;;;;;;;;;;;;23.91;67.48;100909.25;7399989;19;1893;-62
2022/06/29 07:47:19;;;;;;;;;;;;;;;23.95;67.45;100907.09;7402976;19;1543;-56
2022/06/29 07:49:47;;;;;;;;;;;;;;;23.94;67.65;100903.53;7402600;19;1385;-58
2022/06/29 07:52:15;;;;;;;;;;;;;;;23.97;67.73;100915.88;7402457;19;1277;-55
2022/06/29 07:54:43;;;;;;;;;;;;;;;24.03;68.27;100904.41;7400773;19;1417;-57
2022/06/29 07:57:17;;;;;;;;;;;;;;;24.02;68.20;100900.03;7401151;19;1364;-56
2022/06/29 07:59:46;;;;;;;;;;;;;;;23.97;68.03;100911.34;7401689;19;1852;-56
2022/06/29 08:02:15;;;;;;;;;;;;;;;23.96;68.18;100906.09;7398905;19;1512;-59
2022/06/29 08:04:43;;;;;;;;;;;;;;;24.08;68.21;100907.47;7400529;19;1855;-57
2022/06/29 08:07:11;;;;;;;;;;;;;;;24.03;68.75;100909.81;7401036;19;1267;-60
2022/06/29 08:09:40;;;;;;;;;;;;;;;24.01;68.14;100907.28;7402152;19;1364;-59
2022/06/29 08:12:08;;;;;;;;;;;;;;;24.03;68.88;100907.09;7398999;19;2206;-58
2022/06/29 08:14:39;;;;;;;;;;;;;;;24.05;68.64;100906.94;7408878;19;1294;-64
2022/06/29 08:17:08;;;;;;;;;;;;;;;24.03;68.37;100909.81;7408666;19;1364;-62
2022/06/29 08:19:36;;;;;;;;;;;;;;;24.08;68.15;100898.53;7408541;19;1298;-59
2022/06/29 08:22:04;;;;;;;;;;;;;;;24.06;69.06;100897.84;7405554;19;1610;-65
2022/06/29 08:24:33;;;;;;;;;;;;;;;24.13;68.74;100898.84;7404295;19;1853;-60
2022/06/29 08:27:01;;;;;;;;;;;;;;;24.06;68.95;100897.84;7408840;19;1324;-57
2022/06/29 08:29:29;;;;;;;;;;;;;;;24.10;68.97;100905.44;7409432;19;1365;-58
2022/06/29 08:32:00;;;;;;;;;;;;;;;24.11;68.86;100907.13;7408438;19;1455;-58
2022/06/29 08:34:29;;;;;;;;;;;;;;;24.09;68.94;100903.72;7407356;19;1319;-59
2022/06/29 08:36:59;;;;;;;;;;;;;;;24.11;68.45;100900.88;7408240;19;1527;-65
2022/06/29 08:39:28;;;;;;;;;;;;;;;24.10;68.37;100908.13;7408869;19;1624;-60
2022/06/29 08:41:59;;;;;;;;;;;;;;;24.02;69.14;100903.56;7407430;19;1296;-59
2022/06/29 08:44:29;;;;;;;;;;;;;;;24.01;69.36;100899.19;7405002;19;1842;-57
2022/06/29 08:47:00;;;;;;;;;;;;;;;23.99;69.41;100906.59;7407066;19;1267;-58
2022/06/29 08:49:28;;;;;;;;;;;;;;;24.08;69.31;100898.53;7406829;19;1155;-58
2022/06/29 08:51:58;;;;;;;;;;;;;;;24.08;68.95;100906.63;7407194;19;1250;-57
2022/06/29 08:54:26;;;;;;;;;;;;;;;24.15;68.87;100897.69;7406011;19;1892;-58
2022/06/29 08:56:55;;;;;;;;;;;;;;;24.13;68.65;100902.41;7407220;19;1214;-59
2022/06/29 08:59:24;;;;;;;;;;;;;;;24.08;68.61;100912.88;7409073;19;1388;-58
2022/06/29 09:01:53;;;;;;;;;;;;;;;24.08;69.38;100901.22;7406086;19;1473;-58
2022/06/29 09:04:24;;;;;;;;;;;;;;;24.10;69.13;100888.38;7407280;19;1853;-60
2022/06/29 09:06:55;;;;;;;;;;;;;;;24.01;68.82;100893.78;7407091;19;1882;-57
2022/06/29 09:09:23;;;;;;;;;;;;;;;24.04;68.67;100903.41;7404322;19;1583;-60
2022/06/29 09:11:53;;;;;;;;;;;;;;;24.12;68.58;100903.41;7407070;19;1898;-59
2022/06/29 09:14:21;;;;;;;;;;;;;;;24.14;68.30;100900.56;7407721;19;1372;-57
2022/06/29 09:16:54;;;;;;;;;;;;;;;24.22;68.57;100906.81;7408605;19;1214;-67
2022/06/29 09:19:26;;;;;;;;;;;;;;;24.15;68.82;100908.50;7407326;19;1397;-61
2022/06/29 09:21:55;;;;;;;;;;;;;;;24.13;69.03;100891.59;7408199;19;1624;-65
2022/06/29 09:24:25;;;;;;;;;;;;;;;24.20;68.83;100894.47;7405590;19;1868;-60
2022/06/29 09:26:54;;;;;;;;;;;;;;;24.18;68.68;100902.75;7407875;19;1451;-65
2022/06/29 09:29:26;;;;;;;;;;;;;;;24.27;68.55;100903.59;7406830;19;1306;-63
2022/06/29 09:32:09;;;;;;;;;;;;;;;24.23;69.01;100888.72;7407887;19;1337;-63
2022/06/29 09:34:41;;;;;;;;;;;;;;;24.24;68.53;100905.81;7406390;19;1361;-61
2022/06/29 09:37:12;;;;;;;;;;;;;;;24.14;68.51;100893.28;7408161;19;1018;-60
2022/06/29 09:39:41;;;;;;;;;;;;;;;24.06;68.76;100897.84;7406321;19;1765;-61
2022/06/29 09:42:10;;;;;;;;;;;;;;;23.73;69.69;100887.75;7405658;19;1439;-60
2022/06/29 09:44:39;;;;;;;;;;;;;;;22.83;69.80;100881.88;7405859;19;1845;-60
2022/06/29 09:47:09;;;;;;;;;;;;;;;22.00;68.61;100890.22;7407200;19;1402;-62
2022/06/29 09:49:40;;;;;;;;;;;;;;;21.61;67.51;100885.06;7407134;19;1384;-62
2022/06/29 09:52:10;;;;;;;;;;;;;;;21.40;66.16;100863.75;7407580;19;1442;-62
2022/06/29 09:54:40;;;;;;;;;;;;;;;21.33;65.39;100868.91;7406984;19;1526;-60
2022/06/29 09:57:08;;;;;;;;;;;;;;;21.33;64.74;100876.97;7405434;19;1317;-59
2022/06/29 10:05:04;;;;;;;;;;;;;;;21.53;65.77;100871.53;7394793;19;1823;-59
2022/06/29 10:07:34;;;;;;;;;;;;;;;21.44;66.10;100882.16;7397707;19;1447;-59
2022/06/29 10:10:03;;;;;;;;;;;;;;;21.42;66.00;100878.75;7404582;19;1512;-60
2022/06/29 10:15:24;;;;;;;;;;;;;;;21.26;66.15;100875.84;7401803;19;1285;-62
2022/06/29 10:17:57;;;;;;;;;;;;;;;21.23;66.10;100862.72;7399294;19;1625;-62
2022/06/29 10:20:41;;;;;;;;;;;;;;;21.21;65.86;100859.31;7400334;19;1505;-59
2022/06/29 10:23:09;;;;;;;;;;;;;;;21.18;66.21;100870.38;7401965;19;1602;-62
2022/06/29 10:25:39;;;;;;;;;;;;;;;21.16;65.86;100857.06;7401657;19;1861;-62
2022/06/29 10:28:16;;;;;;;;;;;;;;;21.10;65.67;100857.66;7402828;19;1444;-61
2022/06/29 10:30:45;;;;;;;;;;;;;;;21.14;65.68;100874.34;7402123;19;1633;-61
2022/06/29 10:33:28;;;;;;;;;;;;;;;21.13;66.32;100867.25;7401924;19;1459;-60
2022/06/29 10:36:05;;;;;;;;;;;;;;;21.23;66.87;100868.09;7404812;19;1563;-62
2022/06/29 10:38:37;;;;;;;;;;;;;;;21.19;66.98;100861.31;7403225;19;1396;-62
2022/06/29 10:41:10;;;;;;;;;;;;;;;21.23;66.96;100857.34;7405852;19;1563;-62
2022/06/29 10:43:37;;;;;;;;;;;;;;;21.14;67.23;100864.44;7405423;19;1443;-61
2022/06/29 10:46:05;;;;;;;;;;;;;;;20.52;66.70;100791.44;7402823;19;1866;-62
2022/06/29 10:48:33;;;;;;;;;;;;;;;20.74;66.02;100867.38;7405838;19;1712;-62
2022/06/29 10:51:06;;;;;;;;;;;;;;;20.57;65.23;100877.84;7405831;19;1749;-62
2022/06/29 10:53:34;;;;;;;;;;;;;;;20.54;64.54;100862.00;7402325;19;1325;-62
2022/06/29 10:56:03;;;;;;;;;;;;;;;20.58;64.05;100870.63;7405495;19;1609;-62
2022/06/29 10:58:33;;;;;;;;;;;;;;;20.67;64.63;100861.72;7404995;19;1437;-62
2022/06/29 11:01:02;;;;;;;;;;;;;;;20.73;65.25;100844.16;7402017;19;1548;-62
2022/06/29 11:03:30;;;;;;;;;;;;;;;20.90;65.71;100835.38;7402719;19;1796;-60
2022/06/29 11:15:39;;;;;;;;;;;;;;;20.93;67.07;100851.22;7405356;19;1530;-62
2022/06/29 11:17:00;;;;;;;;;;;;;;;20.98;66.87;100856.97;7403551;19;1530;-59
2022/06/29 11:19:31;;;;;;;;;;;;;;;20.97;67.04;100849.94;7403772;19;1343;-62
2022/06/29 11:22:13;;;;;;;;;;;;;;;20.97;67.34;100849.94;7404730;19;1870;-62
2022/06/29 11:25:06;;;;;;;;;;;;;;;20.96;67.51;100842.84;7396151;19;1856;-62
2022/06/29 11:27:38;;;;;;;;;;;;;;;20.99;67.45;100847.94;7399545;19;2565;-59
2022/06/29 11:30:10;;;;;;;;;;;;;;;20.98;67.51;100829.25;7402359;19;1679;-61
2022/06/29 11:32:41;;;;;;;;;;;;;;;21.00;67.79;100846.94;7403338;19;1654;-62
2022/06/29 11:35:10;;;;;;;;;;;;;;;20.93;67.50;100839.59;7401945;19;1702;-63
2022/06/29 11:37:38;;;;;;;;;;;;;;;20.78;67.32;100812.34;7404637;19;1314;-61
2022/06/29 11:40:07;;;;;;;;;;;;;;;20.55;65.90;100825.22;7403609;19;1523;-73
2022/06/29 11:45:41;;;;;;;;;;;;;;;20.52;64.34;100826.38;7397118;19;1868;-58
2022/06/29 11:48:13;;;;;;;;;;;;;;;20.68;63.27;100817.75;7406392;19;1622;-62
2022/06/29 11:50:45;;;;;;;;;;;;;;;20.76;63.55;100811.66;7410883;19;1181;-59
2022/06/29 11:53:14;;;;;;;;;;;;;;;21.02;63.52;100795.69;7412506;19;1349;-59
2022/06/29 11:55:43;;;;;;;;;;;;;;;21.77;62.35;100807.19;7410644;19;1779;-58
2022/06/29 11:58:16;;;;;;;;;;;;;;;22.35;62.02;100805.06;7411193;19;1610;-59
2022/06/29 12:00:45;;;;;;;;;;;;;;;22.61;61.39;100783.50;7410466;19;1544;-61
2022/06/29 12:03:15;;;;;;;;;;;;;;;22.75;61.16;100785.59;7409856;19;1451;-58
2022/06/29 12:05:59;;;;;;;;;;;;;;;22.95;60.69;100794.31;7408490;19;1861;-72
2022/06/29 12:08:27;;;;;;;;;;;;;;;22.90;61.17;100785.88;7411433;19;1526;-65
2022/06/29 12:10:56;;;;;;;;;;;;;;;22.90;60.98;100780.47;7409770;19;1378;-59
2022/06/29 12:13:27;;;;;;;;;;;;;;;22.91;61.56;100782.16;7410239;19;1274;-64
2022/06/29 12:15:55;;;;;;;;;;;;;;;22.92;61.64;100766.81;7410330;19;1445;-63
2022/06/29 12:18:23;;;;;;;;;;;;;;;23.02;61.19;100770.28;7408893;19;1787;-66
2022/06/29 12:20:51;;;;;;;;;;;;;;;23.12;60.83;100783.59;7408732;19;1278;-65
2022/06/29 12:23:20;;;;;;;;;;;;;;;23.15;60.89;100775.22;7408151;19;1476;-65
2022/06/29 12:25:48;;;;;;;;;;;;;;;23.18;61.00;100769.50;7408595;19;1829;-65
2022/06/29 12:28:17;;;;;;;;;;;;;;;23.15;60.66;100753.63;7411911;19;1021;-58
2022/06/29 12:30:47;;;;;;;;;;;;;;;23.18;61.02;100758.72;7409601;19;1685;-65
2022/06/29 12:33:16;;;;;;;;;;;;;;;23.20;61.24;100762.09;7410112;19;1330;-58
2022/06/29 12:35:44;;;;;;;;;;;;;;;23.26;61.40;100768.66;7409362;19;1625;-65
2022/06/29 12:38:12;;;;;;;;;;;;;;;23.19;61.50;100744.19;7410021;19;1165;-65
2022/06/29 12:40:41;;;;;;;;;;;;;;;23.19;61.82;100745.03;7409959;19;1459;-65
2022/06/29 12:43:09;;;;;;;;;;;;;;;23.21;61.51;100736.78;7409498;19;1583;-58
2022/06/29 12:45:37;;;;;;;;;;;;;;;23.24;61.83;100736.47;7408774;19;1853;-58
2022/06/29 12:48:09;;;;;;;;;;;;;;;23.22;61.34;100750.13;7408834;19;1861;-58
2022/06/29 12:50:37;;;;;;;;;;;;;;;23.23;61.64;100735.59;7409095;19;1415;-58
2022/06/29 12:53:06;;;;;;;;;;;;;;;23.24;61.72;100731.06;7406639;19;1433;-65
2022/06/29 12:55:34;;;;;;;;;;;;;;;23.24;61.69;100739.16;7409813;19;1542;-66
2022/06/29 12:58:02;;;;;;;;;;;;;;;23.26;62.00;100733.59;7409128;19;1322;-58
2022/06/29 13:00:32;;;;;;;;;;;;;;;23.26;61.70;100729.06;7406977;19;1678;-65
2022/06/29 13:03:00;;;;;;;;;;;;;;;23.26;61.96;100725.50;7406269;19;1674;-59
2022/06/29 13:05:31;;;;;;;;;;;;;;;23.26;62.21;100723.66;7408025;19;1847;-65
2022/06/29 13:07:59;;;;;;;;;;;;;;;23.26;62.03;100717.41;7410014;19;1150;-58
2022/06/29 13:10:28;;;;;;;;;;;;;;;23.25;62.10;100715.72;7408245;19;1773;-58
2022/06/29 13:12:56;;;;;;;;;;;;;;;23.29;61.78;100720.63;7408828;19;1467;-66
2022/06/29 13:15:24;;;;;;;;;;;;;;;23.28;61.66;100716.25;7409520;19;1556;-65
2022/06/29 13:17:53;;;;;;;;;;;;;;;23.29;62.07;100712.53;7408904;19;1404;-65
2022/06/29 13:20:22;;;;;;;;;;;;;;;23.30;61.75;100710.66;7408476;19;1551;-65
2022/06/29 13:22:53;;;;;;;;;;;;;;;23.29;62.00;100704.44;7408044;19;1393;-58
2022/06/29 13:25:21;;;;;;;;;;;;;;;23.32;62.59;100701.41;7406911;19;1857;-65
2022/06/29 13:27:49;;;;;;;;;;;;;;;23.32;62.39;100705.97;7408658;19;1584;-64
2022/06/29 13:30:18;;;;;;;;;;;;;;;23.33;62.54;100689.59;7407699;19;1635;-65
2022/06/29 13:32:46;;;;;;;;;;;;;;;23.40;61.99;100714.91;7407900;19;1420;-65